createdAt,value
2017-08-22T00:02:30.386Z,5.80
2017-08-22T00:05:01.611Z,6.60
2017-08-22T00:07:32.750Z,4.20
2017-08-22T00:10:04.987Z,9.30
2017-08-22T00:12:36.350Z,5.90
2017-08-22T00:15:06.990Z,11.30
2017-08-22T00:17:37.599Z,7.60
2017-08-22T00:20:07.986Z,7.20
2017-08-22T00:22:38.843Z,8.07
2017-08-22T00:25:09.829Z,7.40
2017-08-22T00:27:40.726Z,6.90
2017-08-22T00:30:11.522Z,4.23
2017-08-22T00:32:42.662Z,4.00
2017-08-22T00:35:13.224Z,5.03
2017-08-22T00:37:43.626Z,7.33
2017-08-22T00:40:13.992Z,3.10
2017-08-22T00:42:44.879Z,6.27
2017-08-22T00:45:15.057Z,4.80
2017-08-22T00:47:46.047Z,4.50
2017-08-22T00:50:16.579Z,5.20
2017-08-22T00:52:47.424Z,9.67
2017-08-22T00:55:18.758Z,6.20
2017-08-22T00:57:49.739Z,4.50
2017-08-22T01:00:20.302Z,6.30
2017-08-22T01:02:50.675Z,5.43
2017-08-22T01:05:21.055Z,3.83
2017-08-22T01:07:52.476Z,5.33
2017-08-22T01:10:22.857Z,4.93
2017-08-22T01:12:53.260Z,3.50
2017-08-22T01:15:23.719Z,3.87
2017-08-22T01:17:54.586Z,3.70
2017-08-22T01:20:24.962Z,7.20
2017-08-22T01:22:55.802Z,9.87
2017-08-22T01:25:26.222Z,3.70
2017-08-22T01:27:57.108Z,3.80
2017-08-22T01:30:27.806Z,4.60
2017-08-22T01:32:57.979Z,4.93
2017-08-22T01:35:28.571Z,4.40
2017-08-22T01:37:59.222Z,5.90
2017-08-22T01:40:30.070Z,7.90
2017-08-22T01:43:00.235Z,5.20
2017-08-22T01:45:30.475Z,3.00
2017-08-22T01:48:01.757Z,6.23
2017-08-22T01:50:32.034Z,3.90
2017-08-22T01:53:02.526Z,4.90
2017-08-22T01:55:33.119Z,5.90
2017-08-22T01:58:04.173Z,4.53
2017-08-22T02:00:34.643Z,5.30
2017-08-22T02:03:06.481Z,4.47
2017-08-22T02:05:36.863Z,5.37
2017-08-22T02:08:07.454Z,6.00
2017-08-22T02:10:37.952Z,6.10
2017-08-22T02:13:08.819Z,4.00
2017-08-22T02:15:39.095Z,6.73
2017-08-22T02:18:09.933Z,9.10
2017-08-22T02:20:40.336Z,6.43
2017-08-22T02:23:11.404Z,5.83
2017-08-22T02:25:41.847Z,5.40
2017-08-22T02:28:12.886Z,4.33
2017-08-22T02:30:43.335Z,3.50
2017-08-22T02:33:14.344Z,5.70
2017-08-22T02:35:45.078Z,6.40
2017-08-22T02:38:15.864Z,5.93
2017-08-22T02:40:46.199Z,5.50
2017-08-22T02:43:16.866Z,3.80
2017-08-22T02:45:47.597Z,4.60
2017-08-22T02:48:18.546Z,8.20
2017-08-22T02:50:49.107Z,4.60
2017-08-22T02:53:19.736Z,4.20
2017-08-22T02:55:50.167Z,7.03
2017-08-22T02:58:20.874Z,4.90
2017-08-22T03:00:51.306Z,5.03
2017-08-22T03:03:22.058Z,3.20
2017-08-22T03:05:52.747Z,7.10
2017-08-22T03:08:23.405Z,4.73
2017-08-22T03:10:53.601Z,5.63
2017-08-22T03:13:24.663Z,7.50
2017-08-22T03:15:55.087Z,7.37
2017-08-22T03:18:26.422Z,7.33
2017-08-22T03:20:56.998Z,6.20
2017-08-22T03:23:27.774Z,5.53
2017-08-22T03:25:58.222Z,5.67
2017-08-22T03:28:30.029Z,10.37
2017-08-22T03:31:00.216Z,6.50
2017-08-22T03:33:31.711Z,6.87
2017-08-22T03:36:02.113Z,6.13
2017-08-22T03:38:33.149Z,5.10
2017-08-22T03:41:03.911Z,8.90
2017-08-22T03:43:34.787Z,9.23
2017-08-22T03:46:05.962Z,7.83
2017-08-22T03:48:36.700Z,8.40
2017-08-22T03:51:07.311Z,6.93
2017-08-22T03:53:37.804Z,5.67
2017-08-22T03:56:08.378Z,4.40
2017-08-22T03:58:39.524Z,4.53
2017-08-22T04:01:09.937Z,6.03
2017-08-22T04:03:41.141Z,4.13
2017-08-22T04:06:11.331Z,5.40
2017-08-22T04:08:41.946Z,4.27
2017-08-22T04:11:12.177Z,4.07
2017-08-22T04:13:43.086Z,4.87
2017-08-22T04:16:14.536Z,7.23
2017-08-22T04:18:46.222Z,8.27
2017-08-22T04:21:16.703Z,8.30
2017-08-22T04:23:47.670Z,7.70
2017-08-22T04:26:18.116Z,8.93
2017-08-22T04:28:48.770Z,7.17
2017-08-22T04:31:19.258Z,6.97
2017-08-22T04:33:50.288Z,5.10
2017-08-22T04:36:21.596Z,3.90
2017-08-22T04:38:51.991Z,6.80
2017-08-22T04:41:22.494Z,5.97
2017-08-22T04:43:53.841Z,5.17
2017-08-22T04:46:24.238Z,7.97
2017-08-22T04:48:55.242Z,7.20
2017-08-22T04:51:25.655Z,6.03
2017-08-22T04:53:56.675Z,6.27
2017-08-22T04:56:27.198Z,4.00
2017-08-22T04:58:57.681Z,5.70
2017-08-22T05:01:27.916Z,8.20
2017-08-22T05:03:58.933Z,6.40
2017-08-22T05:06:29.297Z,5.80
2017-08-22T05:11:24.994Z,7.00
2017-08-22T05:13:55.613Z,5.43
2017-08-22T05:16:25.956Z,7.50
2017-08-22T05:18:56.319Z,9.07
2017-08-22T05:21:26.826Z,7.03
2017-08-22T05:23:57.199Z,12.97
2017-08-22T05:26:27.660Z,8.43
2017-08-22T05:28:58.313Z,11.77
2017-08-22T05:31:28.534Z,7.40
2017-08-22T05:33:58.789Z,10.37
2017-08-22T05:36:29.495Z,15.27
2017-08-22T05:38:59.869Z,10.03
2017-08-22T05:41:30.903Z,15.27
2017-08-22T05:44:01.123Z,15.10
2017-08-22T05:46:31.382Z,12.13
2017-08-22T05:49:01.858Z,13.40
2017-08-22T05:51:32.390Z,14.17
2017-08-22T05:54:03.074Z,12.87
2017-08-22T05:56:33.422Z,17.27
2017-08-22T05:59:03.934Z,23.80
2017-08-22T06:01:34.466Z,16.10
2017-08-22T06:04:05.374Z,13.93
2017-08-22T06:06:36.466Z,16.83
2017-08-22T06:09:06.841Z,22.50
2017-08-22T06:11:38.117Z,16.67
2017-08-22T06:14:08.471Z,17.20
2017-08-22T06:16:38.777Z,24.50
2017-08-22T06:19:09.209Z,24.60
2017-08-22T06:21:40.113Z,23.30
2017-08-22T06:24:11.165Z,29.03
2017-08-22T06:26:41.849Z,31.27
2017-08-22T06:29:12.551Z,23.90
2017-08-22T06:31:42.781Z,30.43
2017-08-22T06:34:13.159Z,31.17
2017-08-22T06:36:44.508Z,26.97
2017-08-22T06:39:15.649Z,34.80
2017-08-22T06:41:46.001Z,28.73
2017-08-22T06:44:16.646Z,26.70
2017-08-22T06:46:46.947Z,28.60
2017-08-22T06:49:17.308Z,25.77
2017-08-22T06:51:48.046Z,24.80
2017-08-22T06:54:18.354Z,25.30
2017-08-22T06:56:48.695Z,32.20
2017-08-22T06:59:19.415Z,24.37
2017-08-22T07:01:50.004Z,34.23
2017-08-22T07:04:21.057Z,26.90
2017-08-22T07:06:51.899Z,19.47
2017-08-22T07:09:22.193Z,19.17
2017-08-22T07:11:52.537Z,20.90
2017-08-22T07:14:22.807Z,18.83
2017-08-22T07:16:53.419Z,18.67
2017-08-22T07:19:24.101Z,23.70
2017-08-22T07:21:54.706Z,16.13
2017-08-22T07:24:25.831Z,12.93
2017-08-22T07:26:56.246Z,31.17
2017-08-22T07:29:27.544Z,16.87
2017-08-22T07:31:57.971Z,22.93
2017-08-22T07:34:28.197Z,17.03
2017-08-22T07:36:58.894Z,16.00
2017-08-22T07:39:29.290Z,14.40
2017-08-22T07:42:00.395Z,15.10
2017-08-22T07:44:30.696Z,13.27
2017-08-22T07:47:01.888Z,11.70
2017-08-22T07:49:32.435Z,16.53
2017-08-22T07:52:03.010Z,10.87
2017-08-22T07:54:33.291Z,10.70
2017-08-22T07:57:03.500Z,10.77
2017-08-22T07:59:33.783Z,13.23
2017-08-22T08:02:04.048Z,14.47
2017-08-22T08:04:34.786Z,13.57
2017-08-22T08:07:05.287Z,15.07
2017-08-22T08:09:35.658Z,12.40
2017-08-22T08:12:06.785Z,16.13
2017-08-22T08:14:37.900Z,13.57
2017-08-22T08:17:08.148Z,13.37
2017-08-22T08:19:38.537Z,13.03
2017-08-22T08:22:08.892Z,14.53
2017-08-22T08:24:39.505Z,10.67
2017-08-22T08:27:10.569Z,8.53
2017-08-22T08:29:40.988Z,10.80
2017-08-22T08:32:11.381Z,8.37
2017-08-22T08:34:42.044Z,10.50
2017-08-22T08:37:12.299Z,8.70
2017-08-22T08:39:42.513Z,9.90
2017-08-22T08:42:13.700Z,9.70
2017-08-22T08:44:44.122Z,7.00
2017-08-22T08:47:14.824Z,12.00
2017-08-22T08:49:45.215Z,16.63
2017-08-22T08:52:15.554Z,9.50
2017-08-22T08:54:46.098Z,7.53
2017-08-22T08:57:16.342Z,7.50
2017-08-22T08:59:47.601Z,7.07
2017-08-22T09:02:18.172Z,7.93
2017-08-22T09:04:48.475Z,10.07
2017-08-22T09:07:18.723Z,6.67
2017-08-22T09:09:49.423Z,7.20
2017-08-22T09:12:19.648Z,5.97
2017-08-22T09:14:50.042Z,5.60
2017-08-22T09:17:20.374Z,8.97
2017-08-22T09:19:51.095Z,6.70
2017-08-22T09:22:22.270Z,9.33
2017-08-22T09:24:52.519Z,6.40
2017-08-22T09:27:22.857Z,5.90
2017-08-22T09:29:53.221Z,3.27
2017-08-22T09:32:24.372Z,6.57
2017-08-22T09:34:55.515Z,9.43
2017-08-22T09:37:26.793Z,11.90
2017-08-22T09:39:57.177Z,10.60
2017-08-22T09:42:27.759Z,5.60
2017-08-22T09:44:57.953Z,5.23
2017-08-22T09:47:28.305Z,7.03
2017-08-22T09:49:59.591Z,8.03
2017-08-22T09:52:29.924Z,9.10
2017-08-22T09:55:00.235Z,5.90
2017-08-22T09:57:30.615Z,7.00
2017-08-22T10:00:01.048Z,6.50
2017-08-22T10:02:31.335Z,9.97
2017-08-22T10:05:01.663Z,6.50
2017-08-22T10:07:32.010Z,5.50
2017-08-22T10:10:02.262Z,10.00
2017-08-22T10:12:32.698Z,5.17
2017-08-22T10:15:03.035Z,9.23
2017-08-22T10:17:33.382Z,6.63
2017-08-22T10:20:03.978Z,5.23
2017-08-22T10:22:34.355Z,8.63
2017-08-22T10:25:04.818Z,5.70
2017-08-22T10:27:35.083Z,4.53
2017-08-22T10:30:05.534Z,7.43
2017-08-22T10:32:35.979Z,4.77
2017-08-22T10:35:06.524Z,8.37
2017-08-22T10:37:36.866Z,4.57
2017-08-22T10:40:07.105Z,6.73
2017-08-22T10:42:37.341Z,5.13
2017-08-22T10:45:07.640Z,6.73
2017-08-22T10:47:38.234Z,5.30
2017-08-22T10:50:08.810Z,3.60
2017-08-22T10:52:39.127Z,6.80
2017-08-22T10:55:09.559Z,4.43
2017-08-22T10:57:39.779Z,5.33
2017-08-22T11:00:10.142Z,6.27
2017-08-22T11:02:40.525Z,5.63
2017-08-22T11:05:11.420Z,4.57
2017-08-22T11:07:41.800Z,6.40
2017-08-22T11:10:12.169Z,6.10
2017-08-22T11:12:43.470Z,6.10
2017-08-22T11:15:14.614Z,5.80
2017-08-22T11:17:45.007Z,6.83
2017-08-22T11:20:15.757Z,5.60
2017-08-22T11:22:46.095Z,4.57
2017-08-22T11:25:16.488Z,6.00
2017-08-22T11:27:47.144Z,4.83
2017-08-22T11:30:17.463Z,3.30
2017-08-22T11:32:47.806Z,3.70
2017-08-22T11:35:18.418Z,5.27
2017-08-22T11:37:48.948Z,6.27
2017-08-22T11:40:19.390Z,5.60
2017-08-22T11:42:50.133Z,8.60
2017-08-22T11:45:20.493Z,4.90
2017-08-22T11:47:51.021Z,6.30
2017-08-22T11:50:21.395Z,5.10
2017-08-22T11:52:51.848Z,6.77
2017-08-22T11:55:22.331Z,4.50
2017-08-22T11:57:52.694Z,22.03
2017-08-22T12:00:23.122Z,5.37
2017-08-22T12:02:53.498Z,3.20
2017-08-22T12:05:23.919Z,5.13
2017-08-22T12:07:54.252Z,5.27
2017-08-22T12:10:25.324Z,12.00
2017-08-22T12:12:55.669Z,4.23
2017-08-22T12:15:27.266Z,4.93
2017-08-22T12:17:59.251Z,5.10
2017-08-22T12:20:29.735Z,4.73
2017-08-22T12:23:00.058Z,5.37
2017-08-22T12:25:30.735Z,3.00
2017-08-22T12:28:12.681Z,3.70
2017-08-22T12:30:48.779Z,3.40
2017-08-22T12:33:19.783Z,9.40
2017-08-22T12:35:51.235Z,3.53
2017-08-22T12:38:21.473Z,3.50
2017-08-22T12:40:51.856Z,3.93
2017-08-22T12:43:22.062Z,5.60
2017-08-22T12:45:52.701Z,2.30
2017-08-22T12:48:23.111Z,2.50
2017-08-22T12:50:53.490Z,5.40
2017-08-22T12:53:23.887Z,2.63
2017-08-22T12:55:54.430Z,6.33
2017-08-22T12:58:25.038Z,4.30
2017-08-22T13:00:55.292Z,3.97
2017-08-22T13:03:25.671Z,4.50
2017-08-22T13:05:57.099Z,3.80
2017-08-22T13:08:27.461Z,4.20
2017-08-22T13:10:58.567Z,7.10
2017-08-22T13:13:28.967Z,5.17
2017-08-22T13:15:59.797Z,6.40
2017-08-22T13:18:30.143Z,6.07
2017-08-22T13:21:00.413Z,3.40
2017-08-22T13:23:31.536Z,5.17
2017-08-22T13:26:02.761Z,3.60
2017-08-22T13:28:33.530Z,7.10
2017-08-22T13:31:05.782Z,3.60
2017-08-22T13:33:36.299Z,3.20
2017-08-22T13:36:06.549Z,5.17
2017-08-22T13:38:38.433Z,5.30
2017-08-22T13:41:08.834Z,5.00
2017-08-22T13:43:40.263Z,3.80
2017-08-22T13:46:10.816Z,5.23
2017-08-22T13:48:41.626Z,5.57
2017-08-22T13:51:11.902Z,5.50
2017-08-22T13:53:42.160Z,4.07
2017-08-22T13:56:12.678Z,6.37
2017-08-22T13:58:43.037Z,5.23
2017-08-22T14:01:13.572Z,3.97
2017-08-22T14:03:44.618Z,3.17
2017-08-22T14:06:15.501Z,9.73
2017-08-22T14:08:45.966Z,5.63
2017-08-22T14:11:16.374Z,7.60
2017-08-22T14:13:46.787Z,3.80
2017-08-22T14:16:17.165Z,7.60
2017-08-22T14:18:47.554Z,4.83
2017-08-22T14:21:19.486Z,8.23
2017-08-22T14:23:49.882Z,6.67
2017-08-22T14:26:20.301Z,3.53
2017-08-22T14:28:50.676Z,4.40
2017-08-22T14:31:21.222Z,4.50
2017-08-22T14:33:51.973Z,4.23
2017-08-22T14:36:22.758Z,5.37
2017-08-22T14:38:53.779Z,4.30
2017-08-22T14:41:24.208Z,4.90
2017-08-22T14:43:55.604Z,6.80
2017-08-22T14:46:25.979Z,4.10
2017-08-22T14:48:57.205Z,6.10
2017-08-22T14:51:27.452Z,5.53
2017-08-22T14:53:58.375Z,3.43
2017-08-22T14:56:29.134Z,4.27
2017-08-22T14:59:00.370Z,3.70
2017-08-22T15:01:30.974Z,4.70
2017-08-22T15:04:01.256Z,9.40
2017-08-22T15:06:31.718Z,6.80
2017-08-22T15:09:04.118Z,8.90
2017-08-22T15:11:34.842Z,4.53
2017-08-22T15:14:05.363Z,6.40
2017-08-22T15:16:35.762Z,6.50
2017-08-22T15:19:06.666Z,3.83
2017-08-22T15:21:38.881Z,5.63
2017-08-22T15:24:10.120Z,6.07
2017-08-22T15:26:40.846Z,4.20
2017-08-22T15:29:11.330Z,4.57
2017-08-22T15:31:41.545Z,4.57
2017-08-22T15:34:12.425Z,4.30
2017-08-22T15:36:42.898Z,4.97
2017-08-22T15:39:13.182Z,5.70
2017-08-22T15:41:44.670Z,4.67
2017-08-22T15:44:15.425Z,3.90
2017-08-22T15:46:45.914Z,5.70
2017-08-22T15:49:17.192Z,3.97
2017-08-22T15:51:47.420Z,4.63
2017-08-22T15:54:17.842Z,5.57
2017-08-22T15:56:48.154Z,3.93
2017-08-22T15:59:18.613Z,3.27
2017-08-22T16:01:48.982Z,3.97
2017-08-22T16:04:19.335Z,3.97
2017-08-22T16:06:49.576Z,4.03
2017-08-22T16:09:19.949Z,3.43
2017-08-22T16:11:51.966Z,3.70
2017-08-22T16:14:22.812Z,3.73
2017-08-22T16:16:53.701Z,3.60
2017-08-22T16:19:24.531Z,3.67
2017-08-22T16:21:55.370Z,4.93
2017-08-22T16:24:26.154Z,4.80
2017-08-22T16:26:56.720Z,5.10
2017-08-22T16:29:28.186Z,5.90
2017-08-22T16:32:00.167Z,6.50
2017-08-22T16:34:31.236Z,4.20
2017-08-22T16:37:02.092Z,3.63
2017-08-22T16:39:32.570Z,5.47
2017-08-22T16:42:03.044Z,5.80
2017-08-22T16:44:33.971Z,5.27
2017-08-22T16:47:05.182Z,4.57
2017-08-22T16:49:35.730Z,4.60
2017-08-22T16:52:06.071Z,3.47
2017-08-22T16:54:37.142Z,6.80
2017-08-22T16:57:08.184Z,8.00
2017-08-22T16:59:39.222Z,3.63
2017-08-22T17:02:11.337Z,2.40
2017-08-22T17:04:41.776Z,3.50
2017-08-22T17:07:12.308Z,4.40
2017-08-22T17:09:43.143Z,3.07
2017-08-22T17:12:13.956Z,4.30
2017-08-22T17:14:44.688Z,4.57
2017-08-22T17:17:15.655Z,4.63
2017-08-22T17:19:48.210Z,2.83
2017-08-22T17:22:19.699Z,4.33
2017-08-22T17:24:51.214Z,3.90
2017-08-22T17:27:21.665Z,4.57
2017-08-22T17:29:52.395Z,6.93
2017-08-22T17:32:23.580Z,5.63
2017-08-22T17:34:54.387Z,3.73
2017-08-22T17:37:25.135Z,5.43
2017-08-22T17:39:56.694Z,4.40
2017-08-22T17:42:27.978Z,5.43
2017-08-22T17:44:58.831Z,4.10
2017-08-22T17:47:29.863Z,5.10
2017-08-22T17:50:01.474Z,3.10
2017-08-22T17:52:32.203Z,5.60
2017-08-22T17:55:02.835Z,3.20
2017-08-22T17:57:33.715Z,2.10
2017-08-22T18:00:04.580Z,4.23
2017-08-22T18:02:35.570Z,4.37
2017-08-22T18:05:06.428Z,5.33
2017-08-22T18:07:37.727Z,2.80
2017-08-22T18:10:12.635Z,3.47
2017-08-22T18:12:44.525Z,4.27
2017-08-22T18:15:14.879Z,2.70
2017-08-22T18:17:45.795Z,6.40
2017-08-22T18:20:17.685Z,2.67
2017-08-22T18:22:48.864Z,2.73
2017-08-22T18:25:19.542Z,4.43
2017-08-22T18:27:51.253Z,5.30
2017-08-22T18:30:22.074Z,3.37
2017-08-22T18:32:52.942Z,4.00
2017-08-22T18:35:23.911Z,2.67
2017-08-22T18:37:55.410Z,7.10
2017-08-22T18:40:26.033Z,5.50
2017-08-22T18:42:56.982Z,3.63
2017-08-22T18:45:28.208Z,4.03
2017-08-22T18:47:58.590Z,3.30
2017-08-22T18:50:29.634Z,3.03
2017-08-22T18:53:00.458Z,2.60
2017-08-22T18:55:31.016Z,2.33
2017-08-22T18:58:05.535Z,2.73
2017-08-22T19:00:41.928Z,3.13
2017-08-22T19:03:16.686Z,4.57
2017-08-22T19:05:47.938Z,1.93
2017-08-22T19:08:18.427Z,3.90
2017-08-22T19:10:49.294Z,3.33
2017-08-22T19:13:19.870Z,2.80
2017-08-22T19:15:50.487Z,3.37
2017-08-22T19:18:20.950Z,4.17
2017-08-22T19:20:52.198Z,3.73
2017-08-22T19:23:22.669Z,6.20
2017-08-22T19:25:53.696Z,4.13
2017-08-22T19:28:24.202Z,3.57
2017-08-22T19:30:55.620Z,3.07
2017-08-22T19:33:26.331Z,4.23
2017-08-22T19:35:57.171Z,3.70
2017-08-22T19:38:28.807Z,3.00
2017-08-22T19:40:59.814Z,3.43
2017-08-22T19:43:30.546Z,3.97
2017-08-22T19:46:01.275Z,6.03
2017-08-22T19:48:31.860Z,3.40
2017-08-22T19:51:02.974Z,7.70
2017-08-22T19:53:33.938Z,2.80
2017-08-22T19:56:04.727Z,4.20
2017-08-22T19:58:35.456Z,5.60
2017-08-22T20:01:06.113Z,10.10
2017-08-22T20:03:37.252Z,5.80
2017-08-22T20:06:07.961Z,6.80
2017-08-22T20:08:39.094Z,10.80
2017-08-22T20:11:09.607Z,8.90
2017-08-22T20:13:40.515Z,5.47
2017-08-22T20:16:10.930Z,6.23
2017-08-22T20:18:41.432Z,6.47
2017-08-22T20:21:12.163Z,5.57
2017-08-22T20:23:42.725Z,5.17
2017-08-22T20:26:13.545Z,4.60
2017-08-22T20:28:45.583Z,4.63
2017-08-22T20:31:16.184Z,7.00
2017-08-22T20:33:46.974Z,4.73
2017-08-22T20:36:18.171Z,4.07
2017-08-22T20:38:49.039Z,5.30
2017-08-22T20:41:19.771Z,3.30
2017-08-22T20:43:50.541Z,8.63
2017-08-22T20:46:21.068Z,5.30
2017-08-22T20:48:52.609Z,4.10
2017-08-22T20:51:23.522Z,7.23
2017-08-22T20:53:54.458Z,5.70
2017-08-22T20:56:25.115Z,5.83
2017-08-22T20:58:55.744Z,7.83
2017-08-22T21:01:25.974Z,4.60
2017-08-22T21:03:56.466Z,6.03
2017-08-22T21:06:27.138Z,5.50
2017-08-22T21:08:58.155Z,5.77
2017-08-22T21:11:28.791Z,6.10
2017-08-22T21:13:59.386Z,9.53
2017-08-22T21:16:30.141Z,4.73
2017-08-22T21:19:00.799Z,5.10
2017-08-22T21:21:31.748Z,10.60
2017-08-22T21:24:02.695Z,5.50
2017-08-22T21:26:33.523Z,4.30
2017-08-22T21:29:04.282Z,7.23
2017-08-22T21:31:34.994Z,6.37
2017-08-22T21:34:06.340Z,5.87
2017-08-22T21:36:37.031Z,5.23
2017-08-22T21:39:07.752Z,5.30
2017-08-22T21:41:38.490Z,7.07
2017-08-22T21:44:09.747Z,4.57
2017-08-22T21:46:40.718Z,5.40
2017-08-22T21:49:11.051Z,5.63
2017-08-22T21:51:49.102Z,8.47
2017-08-22T21:54:20.006Z,6.43
2017-08-22T21:56:51.440Z,5.27
2017-08-22T21:59:22.194Z,4.80
2017-08-22T22:01:52.866Z,5.77
2017-08-22T22:04:23.469Z,6.80
2017-08-22T22:06:54.230Z,7.30
2017-08-22T22:09:24.779Z,7.70
2017-08-22T22:11:55.457Z,4.13
2017-08-22T22:14:26.058Z,4.50
2017-08-22T22:16:56.910Z,6.73
2017-08-22T22:19:27.637Z,9.47
2017-08-22T22:21:59.632Z,6.10
2017-08-22T22:24:30.259Z,10.40
2017-08-22T22:27:00.783Z,6.63
2017-08-22T22:29:31.292Z,6.20
2017-08-22T22:32:02.039Z,6.20
2017-08-22T22:34:33.232Z,5.30
2017-08-22T22:37:03.564Z,7.33
2017-08-22T22:39:34.561Z,4.63
2017-08-22T22:42:05.043Z,5.93
2017-08-22T22:44:35.826Z,3.80
2017-08-22T22:47:06.206Z,4.30
2017-08-22T22:49:37.143Z,4.93
2017-08-22T22:52:07.582Z,5.27
2017-08-22T22:54:38.585Z,7.30
2017-08-22T22:57:09.665Z,6.40
2017-08-22T22:59:40.084Z,7.50
2017-08-22T23:02:10.414Z,4.60
2017-08-22T23:04:40.952Z,3.93
2017-08-22T23:07:11.490Z,5.30
2017-08-22T23:09:42.530Z,4.40
2017-08-22T23:12:12.925Z,6.30
2017-08-22T23:14:44.406Z,5.53
2017-08-22T23:17:15.050Z,5.37
2017-08-22T23:19:47.255Z,7.83
2017-08-22T23:22:17.706Z,7.80
2017-08-22T23:24:48.397Z,3.60
2017-08-22T23:27:19.112Z,6.33
2017-08-22T23:29:49.627Z,5.40
2017-08-22T23:32:19.970Z,7.07
2017-08-22T23:34:50.627Z,5.67
2017-08-22T23:37:20.994Z,11.63
2017-08-22T23:39:51.514Z,8.83
2017-08-22T23:42:23.416Z,5.50
2017-08-22T23:44:54.026Z,5.13
2017-08-22T23:47:24.670Z,5.30
2017-08-22T23:49:55.611Z,5.23
2017-08-22T23:52:26.010Z,7.10
2017-08-22T23:54:56.698Z,5.97
2017-08-22T23:57:27.738Z,4.47
2017-08-22T23:59:58.241Z,6.40
